KFAF/FAF METAR and TAF weather

Enter ICAO airport designator
Station Type Date Time Source
KFAF METAR 2019/12/13 02:56 UTC NOAA

KFAF 130256Z 01004KT 10SM BKN120 02/M02 A3053 RMK AO2A SLP342 T00151021 58022 $


Station Type Date Time Source
KFAF Decoded METAR 2019/12/13 02:56 UTC NOAA

Fort Eustis / Felker, VA, United States (KFAF) 37-08N 076-37W
Dec 12, 2019 - 09:56 PM EST / 2019.12.13 0256 UTC
Wind: from the N (010 degrees) at 5 MPH (4 KT):0
Visibility: 10 mile(s):0
Sky conditions: mostly cloudy
Temperature: 34.7 F (1.5 C)
Windchill: 30 F (-1 C):1
Dew Point: 28.2 F (-2.1 C)
Relative Humidity: 76%
Pressure (altimeter): 30.53 in. Hg (1033 hPa)
Pressure tendency: 0.06 inches (2.2 hPa) lower than three hours ago
ob: KFAF 130256Z 01004KT 10SM BKN120 02/M02 A3053 RMK AO2A SLP342 T00151021 58022
cycle: 3

Station Type Date Time Source
KFAF TAF 2019/12/12 19:54 UTC NOAA

TAF TAF KFAF 121900Z 1219/1401 06012KT 9999 SCT030 QNH3064INS
BECMG 1222/1223 09006KT 9999 BKN020 QNH3063INS
BECMG 1309/1310 06006KT 9999 OVC010 QNH3037INS
BECMG 1315/1316 VRB06KT 8000 BR BKN005 OVC060 QNH3025INS
BECMG 1323/1400 06009KT 8000 -RA OVC004 QNH2998INS TX12/1318Z TN04/1300Z LAST NO
AMDS AFT 1304 NEXT 1311

Example: see airport list